createdAt,value
2016-03-05T00:00:47.678Z,0
2016-03-05T00:01:47.618Z,0
2016-03-05T00:02:47.387Z,0
2016-03-05T00:03:47.357Z,0
2016-03-05T00:04:48.563Z,0
2016-03-05T00:05:47.176Z,0
2016-03-05T00:06:47.304Z,0
2016-03-05T00:07:47.290Z,0
2016-03-05T00:08:47.246Z,0
2016-03-05T00:09:47.217Z,0
2016-03-05T00:10:47.204Z,0
2016-03-05T00:11:47.176Z,0
2016-03-05T00:12:47.164Z,0
2016-03-05T00:13:47.213Z,0
2016-03-05T00:14:47.106Z,0
2016-03-05T00:15:47.359Z,0
2016-03-05T00:16:47.095Z,0
2016-03-05T00:17:47.068Z,0
2016-03-05T00:18:47.023Z,0
2016-03-05T00:19:47.010Z,0
2016-03-05T00:20:47.507Z,0
2016-03-05T00:21:46.935Z,0
2016-03-05T00:22:46.911Z,0
2016-03-05T00:23:46.870Z,0
2016-03-05T00:24:46.861Z,0
2016-03-05T00:25:46.826Z,0
2016-03-05T00:26:46.808Z,0
2016-03-05T00:27:46.795Z,0
2016-03-05T00:28:46.731Z,0
2016-03-05T00:29:46.739Z,0
2016-03-05T00:30:46.693Z,0
2016-03-05T00:31:46.648Z,0
2016-03-05T00:32:46.633Z,0
2016-03-05T00:33:46.620Z,0
2016-03-05T00:34:46.605Z,0
2016-03-05T00:35:46.575Z,0
2016-03-05T00:36:46.530Z,0
2016-03-05T00:37:46.501Z,0
2016-03-05T00:38:46.486Z,0
2016-03-05T00:39:46.520Z,0
2016-03-05T00:40:46.459Z,0
2016-03-05T00:41:46.416Z,0
2016-03-05T00:42:46.404Z,0
2016-03-05T00:43:46.359Z,0
2016-03-05T00:44:46.377Z,0
2016-03-05T00:45:46.348Z,0
2016-03-05T00:46:46.320Z,0
2016-03-05T00:47:46.306Z,0
2016-03-05T00:48:46.263Z,0
2016-03-05T00:49:46.234Z,0
2016-03-05T00:50:46.221Z,0
2016-03-05T00:51:46.208Z,0
2016-03-05T00:52:46.180Z,0
2016-03-05T00:53:46.150Z,0
2016-03-05T00:54:46.123Z,0
2016-03-05T00:55:46.095Z,0
2016-03-05T00:56:46.066Z,0
2016-03-05T00:57:46.037Z,0
2016-03-05T00:58:46.024Z,0
2016-03-05T00:59:46.027Z,0
2016-03-05T01:00:46.029Z,0
2016-03-05T01:01:46.079Z,0
2016-03-05T01:02:45.958Z,0
2016-03-05T01:03:45.897Z,0
2016-03-05T01:04:45.900Z,0
2016-03-05T01:05:45.886Z,0
2016-03-05T01:06:45.889Z,0
2016-03-05T01:07:45.860Z,0
2016-03-05T01:08:45.802Z,0
2016-03-05T01:09:45.772Z,0
2016-03-05T01:10:45.744Z,0
2016-03-05T01:11:45.746Z,0
2016-03-05T01:12:45.921Z,0
2016-03-05T01:13:45.689Z,0
2016-03-05T01:14:45.676Z,0
2016-03-05T01:15:45.632Z,0
2016-03-05T01:16:45.620Z,0
2016-03-05T01:17:45.623Z,0
2016-03-05T01:18:45.593Z,0
2016-03-05T01:19:45.549Z,0
2016-03-05T01:20:45.551Z,0
2016-03-05T01:21:45.523Z,0
2016-03-05T01:22:45.478Z,0
2016-03-05T01:23:45.310Z,0
2016-03-05T01:24:45.438Z,0
2016-03-05T01:25:45.456Z,0
2016-03-05T01:26:45.411Z,0
2016-03-05T01:27:45.367Z,0
2016-03-05T01:28:45.370Z,0
2016-03-05T01:29:45.311Z,0
2016-03-05T01:30:45.313Z,0
2016-03-05T01:31:45.269Z,0
2016-03-05T01:32:45.303Z,0
2016-03-05T01:33:45.212Z,0
2016-03-05T01:34:45.199Z,0
2016-03-05T01:35:45.185Z,0
2016-03-05T01:36:45.157Z,0
2016-03-05T01:37:45.130Z,0
2016-03-05T01:38:45.116Z,0
2016-03-05T01:39:45.088Z,0
2016-03-05T01:40:45.074Z,0
2016-03-05T01:41:45.046Z,0
2016-03-05T01:42:45.017Z,0
2016-03-05T01:43:45.020Z,0
2016-03-05T01:44:44.976Z,0
2016-03-05T01:45:44.963Z,0
2016-03-05T01:46:44.951Z,0
2016-03-05T01:47:44.890Z,0
2016-03-05T01:48:44.909Z,0
2016-03-05T01:49:44.864Z,0
2016-03-05T01:50:44.836Z,0
2016-03-05T01:51:44.806Z,0
2016-03-05T01:52:44.810Z,0
2016-03-05T01:53:44.766Z,0
2016-03-05T01:54:44.768Z,0
2016-03-05T01:55:44.708Z,0
2016-03-05T01:56:44.711Z,0
2016-03-05T01:57:44.667Z,0
2016-03-05T01:58:44.670Z,0
2016-03-05T01:59:44.625Z,0
2016-03-05T02:00:44.614Z,0
2016-03-05T02:01:44.662Z,0
2016-03-05T02:02:44.414Z,0
2016-03-05T02:03:44.542Z,0
2016-03-05T02:04:44.716Z,0
2016-03-05T02:05:44.517Z,0
2016-03-05T02:06:44.473Z,0
2016-03-05T02:07:44.475Z,0
2016-03-05T02:08:44.431Z,0
2016-03-05T02:09:44.402Z,0
2016-03-05T02:10:44.374Z,0
2016-03-05T02:11:44.376Z,0
2016-03-05T02:12:44.332Z,0
2016-03-05T02:13:44.336Z,0
2016-03-05T02:14:44.276Z,0
2016-03-05T02:15:44.544Z,0
2016-03-05T02:16:44.253Z,0
2016-03-05T02:17:44.209Z,0
2016-03-05T02:18:44.180Z,0
2016-03-05T02:19:44.152Z,0
2016-03-05T02:20:44.201Z,0
2016-03-05T02:21:44.157Z,0
2016-03-05T02:22:44.114Z,0
2016-03-05T02:23:44.116Z,0
2016-03-05T02:24:44.041Z,0
2016-03-05T02:25:44.043Z,0
2016-03-05T02:26:44.046Z,0
2016-03-05T02:27:43.985Z,0
2016-03-05T02:28:43.973Z,0
2016-03-05T02:29:43.929Z,0
2016-03-05T02:30:43.932Z,0
2016-03-05T02:31:43.887Z,0
2016-03-05T02:32:43.937Z,0
2016-03-05T02:33:43.831Z,0
2016-03-05T02:34:43.865Z,0
2016-03-05T02:35:43.789Z,0
2016-03-05T02:36:43.792Z,0
2016-03-05T02:37:43.748Z,0
2016-03-05T02:38:43.734Z,0
2016-03-05T02:39:43.690Z,0
2016-03-05T02:40:43.708Z,0
2016-03-05T02:41:43.648Z,0
2016-03-05T02:42:43.651Z,0
2016-03-05T02:43:43.639Z,0
2016-03-05T02:44:43.595Z,0
2016-03-05T02:45:43.581Z,0
2016-03-05T02:46:43.600Z,0
2016-03-05T02:47:43.508Z,0
2016-03-05T02:48:43.496Z,0
2016-03-05T02:49:43.466Z,0
2016-03-05T02:50:43.470Z,0
2016-03-05T02:51:43.426Z,0
2016-03-05T02:52:43.382Z,0
2016-03-05T02:53:43.385Z,0
2016-03-05T02:54:43.324Z,0
2016-03-05T02:55:43.343Z,0
2016-03-05T02:56:43.470Z,0
2016-03-05T02:57:43.301Z,0
2016-03-05T02:58:43.413Z,0
2016-03-05T02:59:43.276Z,0
2016-03-05T03:00:43.199Z,0
2016-03-05T03:01:43.234Z,0
2016-03-05T03:02:43.158Z,0
2016-03-05T03:03:43.161Z,0
2016-03-05T03:04:43.132Z,0
2016-03-05T03:05:43.087Z,0
2016-03-05T03:06:43.076Z,0
2016-03-05T03:07:43.312Z,0
2016-03-05T03:08:43.050Z,0
2016-03-05T03:09:42.989Z,0
2016-03-05T03:10:43.008Z,0
2016-03-05T03:11:42.948Z,0
2016-03-05T03:12:43.045Z,0
2016-03-05T03:13:42.907Z,0
2016-03-05T03:14:42.894Z,0
2016-03-05T03:15:42.850Z,0
2016-03-05T03:16:42.852Z,0
2016-03-05T03:17:42.808Z,0
2016-03-05T03:18:42.794Z,0
2016-03-05T03:19:42.876Z,0
2016-03-05T03:20:42.754Z,0
2016-03-05T03:21:42.710Z,0
2016-03-05T03:22:42.681Z,0
2016-03-05T03:23:42.699Z,0
2016-03-05T03:24:42.671Z,0
2016-03-05T03:25:42.657Z,0
2016-03-05T03:26:42.629Z,0
2016-03-05T03:27:42.585Z,0
2016-03-05T03:28:42.572Z,0
2016-03-05T03:29:42.544Z,0
2016-03-05T03:30:42.515Z,0
2016-03-05T03:31:42.502Z,0
2016-03-05T03:32:42.301Z,0
2016-03-05T03:33:42.445Z,0
2016-03-05T03:34:42.416Z,0
2016-03-05T03:35:42.388Z,0
2016-03-05T03:36:42.359Z,0
2016-03-05T03:37:42.362Z,0
2016-03-05T03:38:42.333Z,0
2016-03-05T03:39:42.320Z,0
2016-03-05T03:40:42.448Z,0
2016-03-05T03:41:42.248Z,0
2016-03-05T03:42:42.235Z,0
2016-03-05T03:43:42.223Z,0
2016-03-05T03:44:42.193Z,0
2016-03-05T03:45:42.180Z,0
2016-03-05T03:46:42.136Z,0
2016-03-05T03:47:42.123Z,0
2016-03-05T03:48:42.110Z,0
2016-03-05T03:49:42.067Z,0
2016-03-05T03:50:42.084Z,0
2016-03-05T03:51:42.025Z,0
2016-03-05T03:52:41.996Z,0
2016-03-05T03:53:41.983Z,0
2016-03-05T03:54:41.985Z,0
2016-03-05T03:55:42.160Z,0
2016-03-05T03:56:41.913Z,0
2016-03-05T03:57:41.869Z,0
2016-03-05T03:58:41.856Z,0
2016-03-05T03:59:41.827Z,0
2016-03-05T04:00:41.815Z,0
2016-03-05T04:01:41.801Z,0
2016-03-05T04:02:41.757Z,0
2016-03-05T04:03:41.728Z,0
2016-03-05T04:04:41.872Z,0
2016-03-05T04:05:41.532Z,0
2016-03-05T04:06:41.659Z,0
2016-03-05T04:07:41.646Z,0
2016-03-05T04:08:41.617Z,0
2016-03-05T04:09:41.604Z,0
2016-03-05T04:10:41.560Z,0
2016-03-05T04:11:41.532Z,0
2016-03-05T04:12:41.519Z,0
2016-03-05T04:13:41.506Z,0
2016-03-05T04:14:41.493Z,0
2016-03-05T04:15:41.761Z,0
2016-03-05T04:16:41.450Z,0
2016-03-05T04:17:41.422Z,0
2016-03-05T04:18:41.379Z,0
2016-03-05T04:19:41.428Z,0
2016-03-05T04:20:41.334Z,0
2016-03-05T04:21:41.322Z,0
2016-03-05T04:22:41.137Z,0
2016-03-05T04:23:41.264Z,0
2016-03-05T04:24:41.251Z,0
2016-03-05T04:25:41.207Z,0
2016-03-05T04:26:41.195Z,0
2016-03-05T04:27:41.197Z,0
2016-03-05T04:28:41.153Z,0
2016-03-05T04:29:41.186Z,0
2016-03-05T04:30:41.080Z,0
2016-03-05T04:31:41.160Z,0
2016-03-05T04:32:41.054Z,0
2016-03-05T04:33:41.071Z,0
2016-03-05T04:34:41.013Z,0
2016-03-05T04:35:40.969Z,0
2016-03-05T04:36:40.971Z,0
2016-03-05T04:37:40.927Z,0
2016-03-05T04:38:41.445Z,0
2016-03-05T04:39:40.745Z,0
2016-03-05T04:40:40.856Z,0
2016-03-05T04:41:40.859Z,0
2016-03-05T04:42:40.863Z,0
2016-03-05T04:43:40.803Z,0
2016-03-05T04:44:40.806Z,0
2016-03-05T04:45:40.745Z,0
2016-03-05T04:46:40.747Z,0
2016-03-05T04:47:40.703Z,0
2016-03-05T04:48:40.707Z,0
2016-03-05T04:49:40.647Z,0
2016-03-05T04:50:40.618Z,0
2016-03-05T04:51:40.620Z,0
2016-03-05T04:52:40.577Z,0
2016-03-05T04:53:40.547Z,0
2016-03-05T04:54:40.535Z,0
2016-03-05T04:55:40.553Z,0
2016-03-05T04:56:40.744Z,0
2016-03-05T04:57:40.450Z,0
2016-03-05T04:58:40.437Z,0
2016-03-05T04:59:40.408Z,0
2016-03-05T05:00:40.394Z,0
2016-03-05T05:01:40.491Z,0
2016-03-05T05:02:40.338Z,0
2016-03-05T05:03:40.310Z,0
2016-03-05T05:04:40.297Z,0
2016-03-05T05:05:40.330Z,0
2016-03-05T05:06:40.240Z,0
2016-03-05T05:07:40.211Z,0
2016-03-05T05:08:40.199Z,0
2016-03-05T05:09:40.185Z,0
2016-03-05T05:10:40.205Z,0
2016-03-05T05:11:40.129Z,0
2016-03-05T05:12:40.366Z,0
2016-03-05T05:13:40.088Z,0
2016-03-05T05:14:40.043Z,0
2016-03-05T05:15:40.030Z,0
2016-03-05T05:16:40.016Z,0
2016-03-05T05:17:39.988Z,0
2016-03-05T05:18:39.976Z,0
2016-03-05T05:19:39.963Z,0
2016-03-05T05:20:39.919Z,0
2016-03-05T05:21:39.905Z,0
2016-03-05T05:22:39.862Z,0
2016-03-05T05:23:39.848Z,0
2016-03-05T05:24:39.804Z,0
2016-03-05T05:25:39.822Z,0
2016-03-05T05:26:39.763Z,0
2016-03-05T05:27:39.782Z,0
2016-03-05T05:28:39.721Z,0
2016-03-05T05:29:39.740Z,0
2016-03-05T05:30:39.679Z,0
2016-03-05T05:31:39.682Z,0
2016-03-05T05:32:39.623Z,0
2016-03-05T05:33:39.641Z,0
2016-03-05T05:34:39.581Z,0
2016-03-05T05:35:39.567Z,0
2016-03-05T05:36:39.525Z,0
2016-03-05T05:37:39.527Z,0
2016-03-05T05:38:39.482Z,0
2016-03-05T05:39:39.469Z,0
2016-03-05T05:40:39.456Z,0
2016-03-05T05:41:39.475Z,0
2016-03-05T05:42:39.384Z,0
2016-03-05T05:43:39.386Z,0
2016-03-05T05:44:39.342Z,0
2016-03-05T05:45:39.345Z,0
2016-03-05T05:46:39.316Z,0
2016-03-05T05:47:39.366Z,0
2016-03-05T05:48:39.259Z,0
2016-03-05T05:49:39.247Z,0
2016-03-05T05:50:39.202Z,0
2016-03-05T05:51:39.408Z,0
2016-03-05T05:52:39.160Z,0
2016-03-05T05:53:39.132Z,0
2016-03-05T05:54:39.103Z,0
2016-03-05T05:55:39.091Z,0
2016-03-05T05:56:39.047Z,0
2016-03-05T05:57:39.065Z,0
2016-03-05T05:58:39.193Z,0
2016-03-05T05:59:38.992Z,0
2016-03-05T06:00:38.964Z,0
2016-03-05T06:01:38.935Z,0
2016-03-05T06:02:38.937Z,0
2016-03-05T06:03:38.926Z,0
2016-03-05T06:04:38.881Z,0
2016-03-05T06:05:38.696Z,0
2016-03-05T06:06:38.855Z,0
2016-03-05T06:07:38.795Z,0
2016-03-05T06:08:38.798Z,0
2016-03-05T06:09:38.753Z,0
2016-03-05T06:10:38.756Z,0
2016-03-05T06:11:38.556Z,0
2016-03-05T06:12:38.700Z,0
2016-03-05T06:13:38.702Z,0
2016-03-05T06:14:38.642Z,0
2016-03-05T06:15:38.613Z,0
2016-03-05T06:16:38.600Z,0
2016-03-05T06:17:38.555Z,0
2016-03-05T06:18:38.574Z,0
2016-03-05T06:19:38.531Z,0
2016-03-05T06:20:38.486Z,0
2016-03-05T06:21:38.474Z,0
2016-03-05T06:22:38.429Z,0
2016-03-05T06:23:38.446Z,0
2016-03-05T06:24:38.403Z,0
2016-03-05T06:25:38.374Z,0
2016-03-05T06:26:38.346Z,0
2016-03-05T06:27:38.318Z,0
2016-03-05T06:28:38.336Z,0
2016-03-05T06:29:38.276Z,0
2016-03-05T06:30:38.262Z,0
2016-03-05T06:31:38.218Z,0
2016-03-05T06:32:38.207Z,0
2016-03-05T06:33:38.209Z,0
2016-03-05T06:34:38.164Z,0
2016-03-05T06:35:38.168Z,0
2016-03-05T06:36:38.107Z,0
2016-03-05T06:37:38.094Z,0
2016-03-05T06:38:38.081Z,0
2016-03-05T06:39:38.037Z,0
2016-03-05T06:40:38.025Z,0
2016-03-05T06:41:38.215Z,0
2016-03-05T06:42:37.967Z,0
2016-03-05T06:43:37.939Z,0
2016-03-05T06:44:38.019Z,5
2016-03-05T06:45:37.913Z,5
2016-03-05T06:46:37.868Z,5
2016-03-05T06:47:37.855Z,5
2016-03-05T06:48:37.812Z,5
2016-03-05T06:49:37.799Z,5
2016-03-05T06:50:37.770Z,5
2016-03-05T06:51:37.788Z,5
2016-03-05T06:52:37.713Z,5
2016-03-05T06:53:37.746Z,5
2016-03-05T06:54:37.687Z,0
2016-03-05T06:55:37.877Z,0
2016-03-05T06:56:37.661Z,0
2016-03-05T06:57:37.618Z,0
2016-03-05T06:58:37.620Z,0
2016-03-05T06:59:37.560Z,0
2016-03-05T07:00:37.609Z,5
2016-03-05T07:01:37.534Z,0
2016-03-05T07:02:37.490Z,0
2016-03-05T07:03:37.492Z,5
2016-03-05T07:04:37.449Z,5
2016-03-05T07:05:37.435Z,5
2016-03-05T07:06:37.423Z,5
2016-03-05T07:07:37.378Z,5
2016-03-05T07:08:37.350Z,5
2016-03-05T07:09:37.352Z,5
2016-03-05T07:10:37.323Z,5
2016-03-05T07:11:37.342Z,5
2016-03-05T07:12:37.267Z,5
2016-03-05T07:13:37.222Z,5
2016-03-05T07:14:37.241Z,5
2016-03-05T07:15:37.180Z,5
2016-03-05T07:16:37.168Z,5
2016-03-05T07:17:37.124Z,5
2016-03-05T07:18:37.111Z,5
2016-03-05T07:19:37.083Z,5
2016-03-05T07:20:37.055Z,5
2016-03-05T07:21:36.900Z,5
2016-03-05T07:22:37.027Z,5
2016-03-05T07:23:37.062Z,5
2016-03-05T07:24:36.986Z,5
2016-03-05T07:25:36.974Z,5
2016-03-05T07:26:36.929Z,5
2016-03-05T07:27:36.916Z,5
2016-03-05T07:28:36.872Z,5
2016-03-05T07:29:36.860Z,5
2016-03-05T07:30:36.815Z,5
2016-03-05T07:31:36.802Z,5
2016-03-05T07:32:36.789Z,5
2016-03-05T07:33:36.808Z,10
2016-03-05T07:34:36.748Z,10
2016-03-05T07:35:36.719Z,10
2016-03-05T07:36:36.659Z,10
2016-03-05T07:37:36.678Z,10
2016-03-05T07:38:36.695Z,10
2016-03-05T07:39:36.620Z,10
2016-03-05T07:40:36.670Z,10
2016-03-05T07:41:36.798Z,10
2016-03-05T07:42:36.567Z,15
2016-03-05T07:43:36.569Z,15
2016-03-05T07:44:36.494Z,15
2016-03-05T07:45:36.792Z,15
2016-03-05T07:46:36.467Z,10
2016-03-05T07:47:36.830Z,10
2016-03-05T07:48:36.410Z,10
2016-03-05T07:49:36.383Z,5
2016-03-05T07:50:36.353Z,5
2016-03-05T07:51:36.372Z,5
2016-03-05T07:52:36.530Z,5
2016-03-05T07:53:36.268Z,5
2016-03-05T07:54:36.271Z,5
2016-03-05T07:55:36.241Z,5
2016-03-05T07:56:36.197Z,5
2016-03-05T07:57:36.325Z,5
2016-03-05T07:58:36.157Z,5
2016-03-05T07:59:36.143Z,5
2016-03-05T08:00:36.130Z,5
2016-03-05T08:01:36.085Z,5
2016-03-05T08:02:36.074Z,5
2016-03-05T08:03:36.029Z,5
2016-03-05T08:04:36.032Z,5
2016-03-05T08:05:36.036Z,5
2016-03-05T08:06:35.991Z,5
2016-03-05T08:07:35.931Z,5
2016-03-05T08:08:35.934Z,5
2016-03-05T08:09:35.890Z,5
2016-03-05T08:10:35.893Z,5
2016-03-05T08:11:35.848Z,5
2016-03-05T08:12:35.835Z,5
2016-03-05T08:13:35.807Z,5
2016-03-05T08:14:35.793Z,5
2016-03-05T08:15:35.749Z,5
2016-03-05T08:16:35.768Z,5
2016-03-05T08:17:35.693Z,5
2016-03-05T08:18:35.696Z,5
2016-03-05T08:19:35.635Z,5
2016-03-05T08:20:35.669Z,5
2016-03-05T08:21:35.625Z,5
2016-03-05T08:22:35.597Z,5
2016-03-05T08:23:35.568Z,5
2016-03-05T08:24:35.524Z,5
2016-03-05T08:25:35.511Z,5
2016-03-05T08:26:35.483Z,5
2016-03-05T08:27:35.501Z,5
2016-03-05T08:28:35.472Z,5
2016-03-05T08:29:35.444Z,5
2016-03-05T08:30:35.414Z,5
2016-03-05T08:31:35.386Z,10
2016-03-05T08:32:35.342Z,10
2016-03-05T08:33:35.172Z,10
2016-03-05T08:34:35.301Z,15
2016-03-05T08:35:35.288Z,15
2016-03-05T08:36:35.260Z,10
2016-03-05T08:37:35.246Z,10
2016-03-05T08:38:35.468Z,10
2016-03-05T08:39:35.189Z,15
2016-03-05T08:40:35.160Z,15
2016-03-05T08:41:35.179Z,10
2016-03-05T08:42:35.104Z,10
2016-03-05T08:43:35.200Z,10
2016-03-05T08:44:35.062Z,10
2016-03-05T08:45:35.049Z,15
2016-03-05T08:46:35.083Z,15
2016-03-05T08:47:34.992Z,10
2016-03-05T08:48:34.963Z,10
2016-03-05T08:49:34.934Z,10
2016-03-05T08:50:34.923Z,10
2016-03-05T08:51:34.909Z,10
2016-03-05T08:52:34.881Z,15
2016-03-05T08:53:34.867Z,15
2016-03-05T08:54:35.073Z,15
2016-03-05T08:55:34.811Z,20
2016-03-05T08:56:34.797Z,20
2016-03-05T08:57:34.753Z,20
2016-03-05T08:58:34.740Z,20
2016-03-05T08:59:34.775Z,20
2016-03-05T09:00:34.683Z,20
2016-03-05T09:01:34.670Z,20
2016-03-05T09:02:34.658Z,20
2016-03-05T09:03:34.614Z,20
2016-03-05T09:04:34.600Z,20
2016-03-05T09:05:34.430Z,20
2016-03-05T09:06:34.590Z,25
2016-03-05T09:07:34.530Z,20
2016-03-05T09:08:34.517Z,20
2016-03-05T09:09:34.474Z,20
2016-03-05T09:10:34.476Z,20
2016-03-05T09:11:34.432Z,15
2016-03-05T09:12:34.402Z,15
2016-03-05T09:13:34.390Z,15
2016-03-05T09:14:34.346Z,15
2016-03-05T09:15:34.333Z,15
2016-03-05T09:16:34.335Z,15
2016-03-05T09:17:34.307Z,20
2016-03-05T09:18:34.278Z,20
2016-03-05T09:19:34.250Z,20
2016-03-05T09:20:34.206Z,20
2016-03-05T09:21:34.193Z,25
2016-03-05T09:22:34.164Z,20
2016-03-05T09:23:34.167Z,20
2016-03-05T09:24:34.123Z,20
2016-03-05T09:25:34.109Z,20
2016-03-05T09:26:34.065Z,20
2016-03-05T09:27:34.025Z,20
2016-03-05T09:28:33.998Z,20
2016-03-05T09:29:33.954Z,15
2016-03-05T09:30:33.928Z,20
2016-03-05T09:31:33.884Z,20
2016-03-05T09:32:33.866Z,20
2016-03-05T09:33:33.925Z,20
2016-03-05T09:34:33.642Z,20
2016-03-05T09:35:33.781Z,20
2016-03-05T09:36:33.747Z,25
2016-03-05T09:37:33.779Z,30
2016-03-05T09:38:33.702Z,25
2016-03-05T09:39:33.703Z,25
2016-03-05T09:40:33.843Z,25
2016-03-05T09:41:33.610Z,20
2016-03-05T09:42:33.581Z,20
2016-03-05T09:43:34.162Z,15
2016-03-05T09:44:33.773Z,15
2016-03-05T09:45:33.556Z,15
2016-03-05T09:46:33.481Z,20
2016-03-05T09:47:33.452Z,20
2016-03-05T09:48:33.438Z,20
2016-03-05T09:49:33.409Z,20
2016-03-05T09:50:33.411Z,15
2016-03-05T09:51:33.602Z,20
2016-03-05T09:52:33.355Z,20
2016-03-05T09:53:33.341Z,25
2016-03-05T09:54:33.313Z,30
2016-03-05T09:55:33.128Z,30
2016-03-05T09:56:33.381Z,30
2016-03-05T09:57:33.274Z,30
2016-03-05T09:58:33.199Z,25
2016-03-05T09:59:33.202Z,20
2016-03-05T10:00:33.173Z,20
2016-03-05T10:01:33.129Z,25
2016-03-05T10:02:33.115Z,20
2016-03-05T10:03:33.087Z,20
2016-03-05T10:04:33.074Z,20
2016-03-05T10:05:33.030Z,15
2016-03-05T10:06:33.018Z,15
2016-03-05T10:07:33.020Z,20
2016-03-05T10:08:32.976Z,20
2016-03-05T10:09:32.962Z,20
2016-03-05T10:10:32.918Z,20
2016-03-05T10:11:32.889Z,20
2016-03-05T10:12:32.893Z,20
2016-03-05T10:13:32.832Z,15
2016-03-05T10:14:32.867Z,20
2016-03-05T10:15:32.823Z,20
2016-03-05T10:16:32.826Z,15
2016-03-05T10:17:32.765Z,15
2016-03-05T10:18:32.814Z,15
2016-03-05T10:19:32.723Z,15
2016-03-05T10:20:32.711Z,15
2016-03-05T10:21:32.667Z,15
2016-03-05T10:22:32.654Z,15
2016-03-05T10:23:32.609Z,15
2016-03-05T10:24:32.628Z,15
2016-03-05T10:25:32.583Z,15
2016-03-05T10:26:32.602Z,15
2016-03-05T10:27:32.558Z,20
2016-03-05T10:28:32.498Z,20
2016-03-05T10:29:32.486Z,25
2016-03-05T10:30:32.472Z,25
2016-03-05T10:31:32.319Z,25
2016-03-05T10:32:32.399Z,25
2016-03-05T10:33:32.371Z,25
2016-03-05T10:34:32.373Z,20
2016-03-05T10:35:32.329Z,15
2016-03-05T10:36:32.332Z,20
2016-03-05T10:37:32.569Z,25
2016-03-05T10:38:32.291Z,25
2016-03-05T10:39:32.246Z,25
2016-03-05T10:40:32.218Z,20
2016-03-05T10:41:32.204Z,20
2016-03-05T10:42:32.082Z,25
2016-03-05T10:43:32.287Z,25
2016-03-05T10:44:32.135Z,30
2016-03-05T10:45:32.138Z,35
2016-03-05T10:46:32.078Z,40
2016-03-05T10:47:32.049Z,45
2016-03-05T10:48:31.301Z,55
2016-03-05T10:49:32.023Z,55
2016-03-05T10:50:32.042Z,50
2016-03-05T10:51:31.967Z,45
2016-03-05T10:52:31.953Z,40
2016-03-05T10:53:32.097Z,40
2016-03-05T10:54:31.928Z,40
2016-03-05T10:55:31.883Z,45
2016-03-05T10:56:31.870Z,45
2016-03-05T10:57:31.810Z,50
2016-03-05T10:58:31.829Z,50
2016-03-05T10:59:31.815Z,55
2016-03-05T11:00:31.756Z,60
2016-03-05T11:01:31.743Z,60
2016-03-05T11:02:31.714Z,60
2016-03-05T11:03:31.716Z,60
2016-03-05T11:04:31.813Z,60
2016-03-05T11:05:31.660Z,60
2016-03-05T11:06:31.616Z,60
2016-03-05T11:07:31.618Z,60
2016-03-05T11:08:31.575Z,60
2016-03-05T11:09:31.546Z,60
2016-03-05T11:10:31.517Z,65
2016-03-05T11:11:31.504Z,55
2016-03-05T11:12:31.490Z,50
2016-03-05T11:13:31.479Z,50
2016-03-05T11:14:31.434Z,50
2016-03-05T11:15:31.484Z,60
2016-03-05T11:16:31.424Z,60
2016-03-05T11:17:31.395Z,60
2016-03-05T11:18:31.351Z,55
2016-03-05T11:19:31.338Z,50
2016-03-05T11:20:31.341Z,50
2016-03-05T11:21:31.298Z,45
2016-03-05T11:22:31.237Z,45
2016-03-05T11:23:31.240Z,40
2016-03-05T11:24:31.227Z,50
2016-03-05T11:25:31.183Z,45
2016-03-05T11:26:31.153Z,45
2016-03-05T11:27:31.156Z,45
2016-03-05T11:28:31.127Z,50
2016-03-05T11:29:31.083Z,50
2016-03-05T11:30:31.087Z,50
2016-03-05T11:31:31.042Z,45
2016-03-05T11:32:31.045Z,40
2016-03-05T11:33:31.001Z,45
2016-03-05T11:34:31.035Z,40
2016-03-05T11:35:30.943Z,35
2016-03-05T11:36:30.196Z,25
2016-03-05T11:37:30.200Z,25
2016-03-05T11:38:30.890Z,25
2016-03-05T11:39:30.877Z,25
2016-03-05T11:40:30.848Z,25
2016-03-05T11:41:30.819Z,20
2016-03-05T11:42:30.650Z,25
2016-03-05T11:43:30.778Z,25
2016-03-05T11:44:30.796Z,30
2016-03-05T11:45:31.018Z,30
2016-03-05T11:46:30.740Z,30
2016-03-05T11:47:30.679Z,30
2016-03-05T11:48:30.682Z,30
2016-03-05T11:49:30.637Z,30
2016-03-05T11:50:30.766Z,25
2016-03-05T11:51:30.611Z,30
2016-03-05T11:52:30.584Z,25
2016-03-05T11:53:30.586Z,25
2016-03-05T11:54:30.542Z,30
2016-03-05T11:55:30.497Z,25
2016-03-05T11:56:30.469Z,25
2016-03-05T11:57:30.456Z,25
2016-03-05T11:58:30.427Z,25
2016-03-05T11:59:30.462Z,25
2016-03-05T12:00:30.417Z,25
2016-03-05T12:01:30.373Z,30
2016-03-05T12:02:30.360Z,30
2016-03-05T12:03:30.316Z,25
2016-03-05T12:04:30.288Z,30
2016-03-05T12:05:30.258Z,30
2016-03-05T12:06:30.262Z,30
2016-03-05T12:07:30.218Z,25
2016-03-05T12:08:30.205Z,25
2016-03-05T12:09:30.192Z,25
2016-03-05T12:10:30.163Z,25
2016-03-05T12:11:30.134Z,25
2016-03-05T12:12:30.121Z,25
2016-03-05T12:13:30.077Z,25
2016-03-05T12:14:30.079Z,25
2016-03-05T12:15:30.036Z,25
2016-03-05T12:16:30.007Z,25
2016-03-05T12:17:30.010Z,25
2016-03-05T12:18:30.043Z,30
2016-03-05T12:19:29.984Z,30
2016-03-05T12:20:29.909Z,30
2016-03-05T12:21:29.926Z,30
2016-03-05T12:22:29.915Z,30
2016-03-05T12:23:29.886Z,25
2016-03-05T12:24:29.826Z,25
2016-03-05T12:25:29.829Z,20
2016-03-05T12:26:29.972Z,20
2016-03-05T12:27:29.771Z,20
2016-03-05T12:28:29.774Z,20
2016-03-05T12:29:29.933Z,25
2016-03-05T12:30:29.951Z,30
2016-03-05T12:31:29.829Z,30
2016-03-05T12:32:29.535Z,30
2016-03-05T12:33:29.600Z,30
2016-03-05T12:34:29.602Z,30
2016-03-05T12:35:29.574Z,30
2016-03-05T12:36:29.546Z,30
2016-03-05T12:37:29.516Z,30
2016-03-05T12:38:29.520Z,25
2016-03-05T12:39:29.491Z,25
2016-03-05T12:40:28.838Z,25
2016-03-05T12:41:29.434Z,25
2016-03-05T12:42:28.687Z,25
2016-03-05T12:43:28.674Z,25
2016-03-05T12:44:29.379Z,30
2016-03-05T12:45:29.366Z,35
2016-03-05T12:46:29.369Z,35
2016-03-05T12:47:29.466Z,35
2016-03-05T12:48:29.296Z,40
2016-03-05T12:49:29.471Z,40
2016-03-05T12:50:29.239Z,40
2016-03-05T12:51:29.305Z,40
2016-03-05T12:52:29.245Z,40
2016-03-05T12:53:29.184Z,40
2016-03-05T12:54:29.157Z,40
2016-03-05T12:55:29.112Z,45
2016-03-05T12:56:29.131Z,40
2016-03-05T12:57:29.086Z,40
2016-03-05T12:58:29.058Z,40
2016-03-05T12:59:29.029Z,40
2016-03-05T13:00:29.001Z,40
2016-03-05T13:01:28.988Z,40
2016-03-05T13:02:28.975Z,35
2016-03-05T13:03:28.930Z,35
2016-03-05T13:04:28.933Z,35
2016-03-05T13:05:28.920Z,35
2016-03-05T13:06:28.907Z,40
2016-03-05T13:07:28.833Z,35
2016-03-05T13:08:28.819Z,35
2016-03-05T13:09:28.821Z,30
2016-03-05T13:10:28.855Z,30
2016-03-05T13:11:28.765Z,30
2016-03-05T13:12:28.752Z,35
2016-03-05T13:13:28.707Z,35
2016-03-05T13:14:28.694Z,40
2016-03-05T13:15:28.697Z,40
2016-03-05T13:16:28.638Z,40
2016-03-05T13:17:28.640Z,40
2016-03-05T13:18:28.987Z,45
2016-03-05T13:19:28.567Z,50
2016-03-05T13:20:28.601Z,60
2016-03-05T13:21:28.542Z,60
2016-03-05T13:22:28.512Z,60
2016-03-05T13:23:28.735Z,55
2016-03-05T13:24:28.487Z,55
2016-03-05T13:25:28.443Z,55
2016-03-05T13:26:28.430Z,60
2016-03-05T13:27:28.417Z,60
2016-03-05T13:28:28.467Z,60
2016-03-05T13:29:28.376Z,55
2016-03-05T13:30:28.331Z,50
2016-03-05T13:31:28.302Z,50
2016-03-05T13:32:28.305Z,50
2016-03-05T13:33:28.105Z,45
2016-03-05T13:34:28.577Z,40
2016-03-05T13:35:28.205Z,40
2016-03-05T13:36:28.192Z,35
2016-03-05T13:37:28.178Z,30
2016-03-05T13:38:28.181Z,30
2016-03-05T13:39:28.309Z,30
2016-03-05T13:40:27.983Z,35
2016-03-05T13:41:28.080Z,35
2016-03-05T13:42:28.052Z,35
2016-03-05T13:43:28.117Z,35
2016-03-05T13:44:28.010Z,30
2016-03-05T13:45:28.075Z,30
2016-03-05T13:46:27.984Z,30
2016-03-05T13:47:28.049Z,30
2016-03-05T13:48:27.943Z,30
2016-03-05T13:49:27.913Z,30
2016-03-05T13:50:27.948Z,30
2016-03-05T13:51:27.856Z,30
2016-03-05T13:52:27.844Z,35
2016-03-05T13:53:27.815Z,35
2016-03-05T13:54:27.818Z,35
2016-03-05T13:55:27.851Z,40
2016-03-05T13:56:27.761Z,35
2016-03-05T13:57:27.826Z,35
2016-03-05T13:58:27.719Z,35
2016-03-05T13:59:27.690Z,35
2016-03-05T14:00:27.678Z,35
2016-03-05T14:01:27.712Z,40
2016-03-05T14:02:27.636Z,40
2016-03-05T14:03:27.592Z,40
2016-03-05T14:04:27.611Z,40
2016-03-05T14:05:27.550Z,40
2016-03-05T14:06:27.975Z,40
2016-03-05T14:07:27.508Z,40
2016-03-05T14:08:27.512Z,40
2016-03-05T14:09:27.467Z,35
2016-03-05T14:10:27.455Z,35
2016-03-05T14:11:27.415Z,35
2016-03-05T14:12:27.574Z,35
2016-03-05T14:13:27.389Z,35
2016-03-05T14:14:27.376Z,35
2016-03-05T14:15:27.380Z,35
2016-03-05T14:16:27.319Z,35
2016-03-05T14:17:27.322Z,35
2016-03-05T14:18:27.293Z,35
2016-03-05T14:19:27.296Z,35
2016-03-05T14:20:27.283Z,35
2016-03-05T14:21:27.286Z,30
2016-03-05T14:22:27.226Z,30
2016-03-05T14:23:27.182Z,30
2016-03-05T14:24:27.138Z,30
2016-03-05T14:25:27.156Z,30
2016-03-05T14:26:27.112Z,30
2016-03-05T14:27:27.068Z,30
2016-03-05T14:28:27.055Z,30
2016-03-05T14:29:27.041Z,30
2016-03-05T14:30:27.106Z,30
2016-03-05T14:31:27.282Z,30
2016-03-05T14:32:27.081Z,30
2016-03-05T14:33:26.989Z,25